QFA129 YSSY-ZSPD
Flight info
| Callsign | QFA129 |
|---|---|
| Flight time | N/A |
| Altitude | 34000 |
| Route | RIC H530 LASUD Q293 AKUMI/N0484F360 Q147 VOMPA Q499 NONUM DCT MEMIG A216 KIBAV/N0478F380 A216 HOOVR DCT LADSS/N0472F400 DCT PAKDO G339 AGIKA Z41 POTET A593 LAMEN/K0887F400 A593 AKARA/K0889S1220 A593 DUMET DUM81A |
| Aircraft | A332/H-SDE3GHIJ2J3J5M1RVWXY/LB2D1 |
Departure
| Time | 2026-05-05 05:00 |
|---|---|
| Airport | Sydney Kingsford Smith International Airport (YSSY) |
Arrival
| Time | N/A |
|---|---|
| Airport | Shanghai Pudong International Airport (ZSPD) |
| Time | Latitude | Longitude | Altitude | Speed | Heading |
|---|---|---|---|---|---|
| 2026-05-05 03:46 | -33.93890 | 151.16643 | 33 ft | 0 kts | 254° |
| 2026-05-05 04:50 | -33.93884 | 151.16669 | 32 ft | 4 kts | 254° |
| 2026-05-05 04:50 | -33.93876 | 151.16700 | 34 ft | 4 kts | 254° |
| 2026-05-05 04:51 | -33.93870 | 151.16726 | 30 ft | 4 kts | 248° |
| 2026-05-05 04:51 | -33.93856 | 151.16746 | 33 ft | 4 kts | 183° |
| 2026-05-05 04:51 | -33.93835 | 151.16742 | 33 ft | 2 kts | 164° |
| 2026-05-05 04:51 | -33.93856 | 151.16749 | 33 ft | 4 kts | 164° |
| 2026-05-05 04:52 | -33.93883 | 151.16758 | 30 ft | 4 kts | 164° |
| 2026-05-05 04:52 | -33.93909 | 151.16766 | 34 ft | 4 kts | 164° |
| 2026-05-05 04:52 | -33.93922 | 151.16770 | 34 ft | 0 kts | 164° |
| 2026-05-05 04:55 | -33.93952 | 151.16781 | 34 ft | 10 kts | 164° |
| 2026-05-05 04:55 | -33.94016 | 151.16802 | 34 ft | 9 kts | 164° |
| 2026-05-05 04:55 | -33.94051 | 151.16863 | 34 ft | 14 kts | 90° |
| 2026-05-05 04:55 | -33.94021 | 151.17016 | 33 ft | 20 kts | 74° |
| 2026-05-05 04:56 | -33.93982 | 151.17170 | 33 ft | 19 kts | 63° |
| 2026-05-05 04:56 | -33.93866 | 151.17197 | 32 ft | 20 kts | 348° |
| 2026-05-05 04:56 | -33.93726 | 151.17162 | 33 ft | 21 kts | 348° |
| 2026-05-05 04:56 | -33.93590 | 151.17126 | 33 ft | 20 kts | 348° |
| 2026-05-05 04:57 | -33.93459 | 151.17094 | 33 ft | 19 kts | 348° |
| 2026-05-05 04:57 | -33.93332 | 151.17043 | 33 ft | 22 kts | 326° |
| 2026-05-05 04:57 | -33.93196 | 151.16949 | 33 ft | 22 kts | 346° |
| 2026-05-05 04:57 | -33.93056 | 151.16912 | 34 ft | 16 kts | 348° |
| 2026-05-05 04:58 | -33.92982 | 151.16973 | 34 ft | 14 kts | 71° |
| 2026-05-05 04:58 | -33.92960 | 151.17080 | 33 ft | 13 kts | 77° |
| 2026-05-05 04:58 | -33.92964 | 151.17161 | 33 ft | 7 kts | 146° |
| 2026-05-05 04:58 | -33.93013 | 151.17177 | 34 ft | 7 kts | 167° |
| 2026-05-05 04:59 | -33.93127 | 151.17208 | 35 ft | 39 kts | 167° |
| 2026-05-05 04:59 | -33.93571 | 151.17319 | 30 ft | 91 kts | 167° |
| 2026-05-05 04:59 | -33.94348 | 151.17525 | 34 ft | 136 kts | 168° |
| 2026-05-05 04:59 | -33.95407 | 151.17806 | 89 ft | 170 kts | 167° |
| 2026-05-05 05:00 | -33.96543 | 151.18151 | 646 ft | 168 kts | 168° |
| 2026-05-05 05:00 | -33.97683 | 151.18527 | 1187 ft | 171 kts | 167° |
| 2026-05-05 05:00 | -33.98841 | 151.18668 | 1800 ft | 166 kts | 191° |
| 2026-05-05 05:00 | -34.00010 | 151.18317 | 2131 ft | 183 kts | 197° |
| 2026-05-05 05:01 | -34.01294 | 151.17904 | 2411 ft | 196 kts | 197° |
| 2026-05-05 05:01 | -34.02676 | 151.17527 | 2595 ft | 214 kts | 187° |
| 2026-05-05 05:01 | -34.04236 | 151.17689 | 2763 ft | 239 kts | 167° |
| 2026-05-05 05:01 | -34.05892 | 151.18352 | 2896 ft | 263 kts | 163° |
| 2026-05-05 05:02 | -34.07647 | 151.19093 | 3449 ft | 265 kts | 164° |
| 2026-05-05 05:02 | -34.09376 | 151.19754 | 4303 ft | 257 kts | 166° |
| 2026-05-05 05:02 | -34.11084 | 151.20345 | 5080 ft | 254 kts | 168° |
| 2026-05-05 05:02 | -34.12808 | 151.20905 | 5672 ft | 260 kts | 168° |